Time;durP1;ratioP1;P1;durP2;ratioP2;P2;SDS_P1;SDS_P2;PMS_P1;PMS_P2;Temp;Humidity;BMP_temperature;BMP_pressure;BME280_temperature;BME280_humidity;BME280_pressure;Samples;Min_cycle;Max_cycle;Signal;HPM_P1;HPM_P2
2021/04/25 00:00:24;;;;;;;;;;;7.40;74.70;;;;;;5028512;28;20321;-75
2021/04/25 00:02:50;;;;;;;;;;;7.40;74.90;;;;;;5045870;28;19932;-75
2021/04/25 00:05:16;;;;;;;;;;;7.40;74.90;;;;;;5045410;28;19932;-74
2021/04/25 00:07:42;;;;;;;;;;;7.40;75.70;;;;;;5045098;28;19999;-74
2021/04/25 00:10:09;;;;;;;;;;;7.40;75.20;;;;;;5019569;28;20011;-74
2021/04/25 00:12:35;;;;;;;;;;;7.30;75.50;;;;;;5028914;28;20016;-74
2021/04/25 00:15:03;;;;;;;;;;;7.30;75.40;;;;;;5028177;28;19916;-74
2021/04/25 00:17:28;;;;;;;;;;;7.30;75.30;;;;;;5046331;28;19931;-75
2021/04/25 00:19:54;;;;;;;;;;;7.30;75.90;;;;;;5045478;28;20740;-74
2021/04/25 00:22:19;;;;;;;;;;;7.30;75.80;;;;;;5043520;28;19921;-74
2021/04/25 00:24:45;;;;;;;;;;;7.30;74.80;;;;;;5026720;28;20008;-74
2021/04/25 00:27:10;;;;;;;;;;;7.30;75.70;;;;;;5042390;28;19979;-74
2021/04/25 00:29:39;;;;;;;;;;;7.30;74.40;;;;;;5043930;28;19920;-75
2021/04/25 00:32:04;;;;;;;;;;;7.30;75.30;;;;;;5043997;28;19920;-76
2021/04/25 00:34:32;;;;;;;;;;;7.30;75.90;;;;;;5044603;28;19920;-74
2021/04/25 00:37:00;;;;;;;;;;;7.20;76.10;;;;;;5044650;28;19921;-74
2021/04/25 00:39:25;;;;;;;;;;;7.20;76.10;;;;;;5013450;28;20011;-74
2021/04/25 00:41:51;;;;;;;;;;;7.20;75.50;;;;;;5047020;28;19969;-74
2021/04/25 00:44:17;;;;;;;;;;;7.20;75.70;;;;;;5046368;28;20014;-74
2021/04/25 00:46:42;;;;;;;;;;;7.20;75.80;;;;;;5044943;28;19956;-74
2021/04/25 00:49:10;;;;;;;;;;;7.10;76.90;;;;;;5046327;28;19928;-74
2021/04/25 00:51:35;;;;;;;;;;;7.10;76.90;;;;;;5045396;28;19912;-74
2021/04/25 00:54:03;;;;;;;;;;;7.10;76.20;;;;;;5029337;28;19927;-74
2021/04/25 00:56:29;;;;;;;;;;;7.00;76.60;;;;;;5045906;28;19916;-74
2021/04/25 00:58:57;;;;;;;;;;;6.90;77.00;;;;;;5028820;28;19963;-75
2021/04/25 01:01:26;;;;;;;;;;;6.90;77.50;;;;;;5018404;28;19920;-74
2021/04/25 01:03:52;;;;;;;;;;;6.90;77.60;;;;;;5046450;28;20449;-74
2021/04/25 01:06:17;;;;;;;;;;;6.80;77.50;;;;;;5046481;28;20520;-74
2021/04/25 01:08:44;;;;;;;;;;;6.80;77.00;;;;;;5045920;28;20003;-74
2021/04/25 01:11:09;;;;;;;;;;;6.80;77.70;;;;;;5046440;28;19985;-74
2021/04/25 01:13:35;;;;;;;;;;;6.80;78.20;;;;;;5047244;28;19917;-74
2021/04/25 01:16:00;;;;;;;;;;;6.80;77.60;;;;;;5045852;28;19970;-74
2021/04/25 01:18:26;;;;;;;;;;;6.70;78.40;;;;;;5028499;28;19921;-74
2021/04/25 01:21:01;;;;;;;;;;;6.80;77.70;;;;;;5028696;28;20316;-74
2021/04/25 01:23:26;;;;;;;;;;;6.80;78.50;;;;;;5047951;28;19948;-74
2021/04/25 01:25:52;;;;;;;;;;;6.70;77.90;;;;;;5046961;28;19987;-74
2021/04/25 01:28:17;;;;;;;;;;;6.60;78.40;;;;;;5046782;28;19960;-74
2021/04/25 01:30:45;;;;;;;;;;;6.60;78.20;;;;;;5046020;28;20338;-74
2021/04/25 01:33:10;;;;;;;;;;;6.50;77.90;;;;;;5045940;28;19926;-74
2021/04/25 01:35:36;;;;;;;;;;;6.60;78.20;;;;;;5029149;28;19928;-74
2021/04/25 01:38:02;;;;;;;;;;;6.60;78.60;;;;;;5029328;28;19916;-74
2021/04/25 01:40:27;;;;;;;;;;;6.50;77.60;;;;;;5036087;28;19920;-74
2021/04/25 01:42:53;;;;;;;;;;;6.50;78.50;;;;;;5051116;28;19913;-74
2021/04/25 01:45:19;;;;;;;;;;;6.50;78.80;;;;;;5033647;28;19920;-74
2021/04/25 01:47:48;;;;;;;;;;;6.50;78.20;;;;;;5050508;28;19913;-74
2021/04/25 01:50:14;;;;;;;;;;;6.40;77.80;;;;;;5032071;28;20078;-74
2021/04/25 01:52:39;;;;;;;;;;;6.50;78.40;;;;;;5051326;28;20013;-74
2021/04/25 01:55:05;;;;;;;;;;;6.40;78.30;;;;;;5050840;28;19920;-74
2021/04/25 01:57:31;;;;;;;;;;;6.40;78.70;;;;;;5051511;28;19971;-74
2021/04/25 01:59:56;;;;;;;;;;;6.30;78.20;;;;;;5050269;28;19978;-74
2021/04/25 02:02:22;;;;;;;;;;;6.30;78.20;;;;;;5049837;28;20024;-74
2021/04/25 02:04:50;;;;;;;;;;;6.30;78.60;;;;;;5049182;28;19920;-74
2021/04/25 02:07:15;;;;;;;;;;;6.20;78.00;;;;;;5049875;28;19925;-74
2021/04/25 02:09:41;;;;;;;;;;;6.20;77.80;;;;;;5049983;28;19978;-74
2021/04/25 02:12:09;;;;;;;;;;;6.20;77.60;;;;;;5031823;28;20014;-74
2021/04/25 02:14:34;;;;;;;;;;;6.10;77.90;;;;;;5051111;28;19921;-74
2021/04/25 02:17:00;;;;;;;;;;;6.00;78.20;;;;;;5048839;28;20566;-74
2021/04/25 02:19:25;;;;;;;;;;;6.10;78.40;;;;;;5050091;28;19931;-74
2021/04/25 02:21:51;;;;;;;;;;;6.00;78.50;;;;;;5049916;28;19924;-74
2021/04/25 02:24:16;;;;;;;;;;;6.00;78.50;;;;;;5016313;28;19932;-74
2021/04/25 02:26:42;;;;;;;;;;;5.90;78.70;;;;;;5048922;28;19978;-74
2021/04/25 02:29:07;;;;;;;;;;;5.90;79.40;;;;;;5049817;28;21017;-74
2021/04/25 02:31:33;;;;;;;;;;;5.90;79.00;;;;;;5048728;28;19916;-74
2021/04/25 02:33:58;;;;;;;;;;;5.80;79.10;;;;;;5032187;28;19921;-74
2021/04/25 02:36:24;;;;;;;;;;;5.80;78.90;;;;;;5049328;28;20043;-74
2021/04/25 02:38:49;;;;;;;;;;;5.70;78.50;;;;;;5049128;28;19920;-74
2021/04/25 02:41:15;;;;;;;;;;;5.80;79.20;;;;;;5048367;28;19916;-74
2021/04/25 02:43:40;;;;;;;;;;;5.70;78.30;;;;;;5047829;28;20054;-74
2021/04/25 02:46:06;;;;;;;;;;;5.70;79.40;;;;;;5049277;28;20020;-74
2021/04/25 02:48:36;;;;;;;;;;;5.70;78.90;;;;;;5048199;28;19927;-74
2021/04/25 02:51:02;;;;;;;;;;;5.60;79.30;;;;;;5047534;28;19925;-74
2021/04/25 02:53:27;;;;;;;;;;;5.60;78.80;;;;;;5033128;28;19921;-74
2021/04/25 02:55:53;;;;;;;;;;;5.60;79.30;;;;;;5048604;28;20315;-74
2021/04/25 02:58:21;;;;;;;;;;;5.50;79.10;;;;;;5031521;28;19925;-74
2021/04/25 03:00:46;;;;;;;;;;;5.50;78.90;;;;;;5047930;28;19927;-74
2021/04/25 03:03:12;;;;;;;;;;;5.40;78.80;;;;;;5048575;28;19916;-74
2021/04/25 03:05:37;;;;;;;;;;;5.40;79.10;;;;;;5049666;28;19921;-74
2021/04/25 03:08:05;;;;;;;;;;;5.30;79.10;;;;;;5009192;28;19925;-74
2021/04/25 03:10:31;;;;;;;;;;;5.30;79.80;;;;;;5009328;28;19921;-74
2021/04/25 03:12:59;;;;;;;;;;;5.30;79.40;;;;;;5007549;28;19976;-74
2021/04/25 03:15:26;;;;;;;;;;;5.20;79.30;;;;;;5008961;28;19925;-74
2021/04/25 03:17:52;;;;;;;;;;;5.20;80.10;;;;;;5012283;28;19917;-74
2021/04/25 03:20:18;;;;;;;;;;;5.20;79.30;;;;;;5009398;28;19983;-74
2021/04/25 03:22:46;;;;;;;;;;;5.20;79.70;;;;;;5023404;28;20022;-74
2021/04/25 03:25:12;;;;;;;;;;;5.10;79.30;;;;;;5009729;28;20012;-74
2021/04/25 03:27:37;;;;;;;;;;;5.10;79.70;;;;;;5025053;28;20008;-74
2021/04/25 03:30:03;;;;;;;;;;;5.10;79.80;;;;;;5008705;28;19926;-75
2021/04/25 03:32:31;;;;;;;;;;;5.10;79.70;;;;;;5007367;28;19973;-74
2021/04/25 03:34:57;;;;;;;;;;;5.10;79.60;;;;;;5024659;28;19929;-74
2021/04/25 03:37:24;;;;;;;;;;;5.00;79.70;;;;;;5008712;28;19918;-74
2021/04/25 03:39:50;;;;;;;;;;;5.00;80.60;;;;;;5022747;28;19921;-74
2021/04/25 03:42:18;;;;;;;;;;;5.00;80.50;;;;;;5023871;28;19913;-74
2021/04/25 03:44:46;;;;;;;;;;;4.90;80.90;;;;;;5008514;28;20015;-74
2021/04/25 03:47:11;;;;;;;;;;;4.90;81.20;;;;;;5008858;28;19999;-74
2021/04/25 03:49:39;;;;;;;;;;;4.80;80.50;;;;;;5006157;28;20293;-74
2021/04/25 03:52:11;;;;;;;;;;;4.90;81.30;;;;;;5009914;28;20008;-74
2021/04/25 03:54:39;;;;;;;;;;;4.80;80.90;;;;;;5007795;28;19948;-74
2021/04/25 03:57:05;;;;;;;;;;;4.70;81.20;;;;;;5004378;28;19917;-74
2021/04/25 03:59:31;;;;;;;;;;;4.70;81.60;;;;;;5013704;28;19922;-74
2021/04/25 04:01:56;;;;;;;;;;;4.70;81.60;;;;;;5006590;28;19929;-74
2021/04/25 04:04:22;;;;;;;;;;;4.70;81.60;;;;;;5005322;28;19941;-74
2021/04/25 04:06:47;;;;;;;;;;;4.70;82.10;;;;;;5023843;28;20015;-74
2021/04/25 04:09:14;;;;;;;;;;;4.60;82.50;;;;;;5032200;28;19923;-74
2021/04/25 04:11:40;;;;;;;;;;;4.70;82.50;;;;;;5029691;28;19921;-74
2021/04/25 04:14:05;;;;;;;;;;;4.60;82.60;;;;;;5047715;28;20534;-74
2021/04/25 04:16:31;;;;;;;;;;;4.70;83.30;;;;;;4999356;28;19916;-74
2021/04/25 04:18:56;;;;;;;;;;;4.70;82.90;;;;;;5047613;28;19916;-74
2021/04/25 04:21:22;;;;;;;;;;;4.70;82.60;;;;;;5046700;28;19917;-74
2021/04/25 04:23:53;;;;;;;;;;;4.70;83.10;;;;;;5028338;28;21844;-74
2021/04/25 04:26:21;;;;;;;;;;;4.70;83.00;;;;;;5047484;28;20067;-74
2021/04/25 04:28:46;;;;;;;;;;;4.70;82.50;;;;;;5047810;28;20035;-74
2021/04/25 04:31:12;;;;;;;;;;;4.60;83.20;;;;;;5046475;28;20554;-74
2021/04/25 04:33:38;;;;;;;;;;;4.60;83.70;;;;;;5047794;28;19921;-74
2021/04/25 04:36:04;;;;;;;;;;;4.60;82.90;;;;;;5015142;28;19920;-74
2021/04/25 04:38:29;;;;;;;;;;;4.70;84.40;;;;;;5048007;28;19955;-74
2021/04/25 04:40:57;;;;;;;;;;;4.70;83.40;;;;;;5015522;28;19971;-74
2021/04/25 04:43:23;;;;;;;;;;;4.70;83.90;;;;;;5047279;28;19921;-74
2021/04/25 04:45:49;;;;;;;;;;;4.70;83.60;;;;;;5047349;28;19921;-74
2021/04/25 04:48:16;;;;;;;;;;;4.70;84.10;;;;;;5028309;28;19917;-74
2021/04/25 04:50:42;;;;;;;;;;;4.70;84.20;;;;;;5047617;28;20354;-74
2021/04/25 04:53:07;;;;;;;;;;;4.60;83.70;;;;;;5048330;28;19955;-74
2021/04/25 04:55:33;;;;;;;;;;;4.70;83.90;;;;;;5027631;28;21367;-74
2021/04/25 04:57:58;;;;;;;;;;;4.70;84.00;;;;;;5048024;28;19921;-74
2021/04/25 05:00:24;;;;;;;;;;;4.60;83.70;;;;;;5046470;28;19917;-74
2021/04/25 05:02:50;;;;;;;;;;;4.70;83.40;;;;;;5046149;28;19951;-74
2021/04/25 05:05:18;;;;;;;;;;;4.70;83.50;;;;;;5047932;28;20407;-74
2021/04/25 05:07:45;;;;;;;;;;;4.70;84.00;;;;;;5047873;28;19929;-74
2021/04/25 05:10:11;;;;;;;;;;;4.70;84.50;;;;;;5047093;28;19924;-74
2021/04/25 05:12:37;;;;;;;;;;;4.70;83.70;;;;;;5045767;28;19912;-74
2021/04/25 05:15:05;;;;;;;;;;;4.70;83.30;;;;;;5031401;28;19916;-74
2021/04/25 05:17:31;;;;;;;;;;;4.70;84.60;;;;;;5029960;28;19916;-74
2021/04/25 05:19:56;;;;;;;;;;;4.80;84.60;;;;;;5050265;28;19924;-74
2021/04/25 05:22:22;;;;;;;;;;;4.80;84.10;;;;;;5050349;28;20484;-74
2021/04/25 05:24:47;;;;;;;;;;;4.80;83.70;;;;;;5050579;28;19921;-74
2021/04/25 05:27:15;;;;;;;;;;;4.90;84.40;;;;;;5022919;28;21723;-74
2021/04/25 05:29:43;;;;;;;;;;;4.80;84.30;;;;;;5050676;28;19925;-74
2021/04/25 05:32:08;;;;;;;;;;;4.90;82.90;;;;;;5050477;28;20419;-74
2021/04/25 05:34:34;;;;;;;;;;;5.00;84.00;;;;;;5051206;28;19917;-74
2021/04/25 05:37:00;;;;;;;;;;;5.00;83.10;;;;;;5050373;28;19952;-74
2021/04/25 05:39:27;;;;;;;;;;;5.00;83.90;;;;;;5032935;28;19921;-74
2021/04/25 05:41:53;;;;;;;;;;;5.10;84.10;;;;;;5050196;28;19975;-74
2021/04/25 05:44:18;;;;;;;;;;;5.10;83.20;;;;;;5051984;28;19920;-74
2021/04/25 05:46:46;;;;;;;;;;;5.20;84.40;;;;;;5015431;28;19946;-74
2021/04/25 05:49:12;;;;;;;;;;;5.30;84.40;;;;;;5050733;28;19927;-74
2021/04/25 05:51:40;;;;;;;;;;;5.30;83.30;;;;;;5051524;28;20445;-74
2021/04/25 05:54:05;;;;;;;;;;;5.30;82.70;;;;;;5018826;28;19999;-74
2021/04/25 05:56:31;;;;;;;;;;;5.30;83.10;;;;;;5031965;28;19973;-74
2021/04/25 05:58:57;;;;;;;;;;;5.40;82.50;;;;;;5051294;28;19924;-74
2021/04/25 06:01:23;;;;;;;;;;;5.40;82.80;;;;;;5050397;28;19972;-74
2021/04/25 06:03:48;;;;;;;;;;;5.40;82.40;;;;;;5049979;28;21832;-74
2021/04/25 06:06:16;;;;;;;;;;;5.40;81.90;;;;;;5032498;28;19920;-74
2021/04/25 06:08:43;;;;;;;;;;;5.50;82.40;;;;;;5050440;28;20241;-74
2021/04/25 06:11:12;;;;;;;;;;;5.50;82.50;;;;;;5030530;28;19956;-74
2021/04/25 06:13:37;;;;;;;;;;;5.60;82.90;;;;;;5050667;28;20618;-74
2021/04/25 06:16:03;;;;;;;;;;;5.60;81.30;;;;;;5049991;28;19916;-74
2021/04/25 06:18:28;;;;;;;;;;;5.60;82.30;;;;;;5048617;28;19980;-74
2021/04/25 06:20:56;;;;;;;;;;;5.70;80.00;;;;;;5049674;28;19916;-74
2021/04/25 06:23:24;;;;;;;;;;;5.70;82.00;;;;;;5031154;28;19927;-74
2021/04/25 06:25:50;;;;;;;;;;;5.80;82.70;;;;;;5030463;28;19921;-74
2021/04/25 06:28:15;;;;;;;;;;;5.80;81.50;;;;;;5013201;28;19923;-74
2021/04/25 06:30:41;;;;;;;;;;;5.80;81.70;;;;;;5049798;28;20417;-74
2021/04/25 06:33:06;;;;;;;;;;;5.90;81.90;;;;;;5032379;28;19916;-75
2021/04/25 06:35:32;;;;;;;;;;;6.00;83.70;;;;;;5049891;28;19920;-74
2021/04/25 06:37:57;;;;;;;;;;;6.00;83.00;;;;;;5032039;28;20199;-74
2021/04/25 06:40:25;;;;;;;;;;;6.00;82.80;;;;;;5049542;28;19977;-75
2021/04/25 06:42:51;;;;;;;;;;;6.10;81.40;;;;;;5050527;28;19964;-74
2021/04/25 06:45:19;;;;;;;;;;;6.10;81.20;;;;;;5030865;28;20563;-74
2021/04/25 06:47:48;;;;;;;;;;;6.10;80.90;;;;;;5032166;28;19924;-74
2021/04/25 06:50:16;;;;;;;;;;;6.10;83.20;;;;;;5048975;28;19998;-74
2021/04/25 06:52:45;;;;;;;;;;;6.20;82.80;;;;;;5049276;28;19927;-74
2021/04/25 06:55:12;;;;;;;;;;;6.20;81.30;;;;;;5014215;28;20346;-74
2021/04/25 06:57:37;;;;;;;;;;;6.30;82.00;;;;;;5032845;28;20501;-74
2021/04/25 07:00:06;;;;;;;;;;;6.30;80.40;;;;;;5048311;28;19959;-75
2021/04/25 07:02:32;;;;;;;;;;;6.30;80.30;;;;;;5031323;28;19920;-74
2021/04/25 07:04:57;;;;;;;;;;;6.40;80.60;;;;;;5029257;28;19920;-75
2021/04/25 07:07:23;;;;;;;;;;;6.50;80.80;;;;;;5048375;28;19929;-75
2021/04/25 07:09:48;;;;;;;;;;;6.60;80.40;;;;;;5047676;28;19932;-75
2021/04/25 07:12:19;;;;;;;;;;;6.60;79.30;;;;;;5049113;28;19921;-75
2021/04/25 07:14:44;;;;;;;;;;;6.60;78.10;;;;;;5049578;28;19928;-75
2021/04/25 07:17:10;;;;;;;;;;;6.70;79.00;;;;;;5030715;28;19917;-75
2021/04/25 07:19:35;;;;;;;;;;;6.80;79.20;;;;;;5029954;28;19928;-75
2021/04/25 07:22:03;;;;;;;;;;;6.90;78.10;;;;;;5048963;28;19928;-75
2021/04/25 07:24:29;;;;;;;;;;;7.00;77.80;;;;;;5049235;28;19951;-75
2021/04/25 07:26:54;;;;;;;;;;;7.00;75.70;;;;;;5015576;28;20768;-75
2021/04/25 07:29:20;;;;;;;;;;;7.10;76.10;;;;;;5048041;28;19917;-75
2021/04/25 07:31:45;;;;;;;;;;;7.20;76.10;;;;;;5048332;28;19951;-75
2021/04/25 07:34:13;;;;;;;;;;;7.20;75.10;;;;;;5048426;28;19995;-74
2021/04/25 07:36:39;;;;;;;;;;;7.20;76.60;;;;;;5047741;28;20542;-75
2021/04/25 07:39:04;;;;;;;;;;;7.40;78.50;;;;;;5030285;28;19923;-75
2021/04/25 07:41:30;;;;;;;;;;;7.60;76.70;;;;;;5030405;28;19920;-75
2021/04/25 07:43:56;;;;;;;;;;;7.60;75.30;;;;;;5048637;28;19927;-75
2021/04/25 07:46:22;;;;;;;;;;;7.80;76.60;;;;;;5048324;28;19920;-75
2021/04/25 07:48:48;;;;;;;;;;;7.80;76.10;;;;;;5047460;28;20012;-75
2021/04/25 07:51:13;;;;;;;;;;;8.00;75.80;;;;;;5048482;28;20017;-75
2021/04/25 07:53:41;;;;;;;;;;;8.10;75.60;;;;;;5047796;28;19928;-75
2021/04/25 07:56:06;;;;;;;;;;;8.20;75.80;;;;;;5048944;28;20692;-75
2021/04/25 07:58:32;;;;;;;;;;;8.50;74.60;;;;;;5002959;28;19920;-75
2021/04/25 08:00:59;;;;;;;;;;;8.60;74.20;;;;;;5048844;28;20258;-75
2021/04/25 08:03:24;;;;;;;;;;;8.80;75.50;;;;;;5046352;28;19932;-75
2021/04/25 08:05:52;;;;;;;;;;;8.90;74.10;;;;;;5047899;28;19916;-74
2021/04/25 08:08:20;;;;;;;;;;;9.10;74.40;;;;;;5048192;28;19924;-75
2021/04/25 08:10:46;;;;;;;;;;;9.10;72.20;;;;;;5047877;28;20501;-75
2021/04/25 08:13:14;;;;;;;;;;;9.20;72.40;;;;;;5048031;28;20368;-75
2021/04/25 08:15:39;;;;;;;;;;;9.30;72.20;;;;;;5047884;28;20406;-75
2021/04/25 08:18:05;;;;;;;;;;;9.40;71.20;;;;;;5030290;28;19917;-75
2021/04/25 08:20:30;;;;;;;;;;;9.50;71.00;;;;;;5030594;28;19921;-75
2021/04/25 08:22:56;;;;;;;;;;;9.60;71.10;;;;;;5048023;28;19924;-75
2021/04/25 08:25:24;;;;;;;;;;;9.80;73.20;;;;;;5046672;28;20020;-75
2021/04/25 08:27:52;;;;;;;;;;;10.00;72.00;;;;;;5029594;28;20381;-74
2021/04/25 08:30:18;;;;;;;;;;;10.10;70.50;;;;;;5047527;28;19931;-75
2021/04/25 08:32:45;;;;;;;;;;;10.20;70.60;;;;;;5047572;28;20258;-75
2021/04/25 08:35:11;;;;;;;;;;;10.50;71.40;;;;;;5048060;28;20349;-75
2021/04/25 08:37:36;;;;;;;;;;;10.60;70.10;;;;;;5046922;28;19931;-75
2021/04/25 08:40:02;;;;;;;;;;;10.80;73.10;;;;;;5046873;28;19975;-73
2021/04/25 08:42:28;;;;;;;;;;;10.80;71.20;;;;;;5047495;28;19987;-73
2021/04/25 08:44:54;;;;;;;;;;;10.90;69.20;;;;;;5047012;28;19920;-75
2021/04/25 08:47:19;;;;;;;;;;;11.00;68.60;;;;;;5047411;28;20003;-75
2021/04/25 08:49:46;;;;;;;;;;;11.10;66.50;;;;;;5048394;28;21870;-75
2021/04/25 08:52:12;;;;;;;;;;;11.30;68.00;;;;;;5033387;28;19938;-73
2021/04/25 08:54:37;;;;;;;;;;;11.20;68.20;;;;;;5051310;28;19987;-73
2021/04/25 08:57:03;;;;;;;;;;;11.30;65.90;;;;;;5050877;28;19917;-73
2021/04/25 08:59:28;;;;;;;;;;;11.40;67.70;;;;;;5052430;28;20302;-72
2021/04/25 09:01:54;;;;;;;;;;;11.60;67.00;;;;;;5050604;28;20367;-75
2021/04/25 09:04:19;;;;;;;;;;;11.60;63.60;;;;;;5051292;28;19999;-75
2021/04/25 09:07:01;;;;;;;;;;;11.60;66.60;;;;;;5050581;28;19925;-75
2021/04/25 09:09:45;;;;;;;;;;;11.60;64.10;;;;;;5051492;28;19974;-72
2021/04/25 09:12:12;;;;;;;;;;;11.90;67.30;;;;;;5050198;28;19927;-73
2021/04/25 09:14:38;;;;;;;;;;;11.90;64.10;;;;;;5032848;28;20016;-75
2021/04/25 09:17:05;;;;;;;;;;;11.80;69.00;;;;;;5030693;28;19916;-73
2021/04/25 09:19:49;;;;;;;;;;;11.80;63.00;;;;;;5033666;28;19916;-73
2021/04/25 09:22:18;;;;;;;;;;;12.00;66.50;;;;;;5035567;28;19920;-76
2021/04/25 09:24:44;;;;;;;;;;;11.90;61.30;;;;;;5032122;28;19932;-76
2021/04/25 09:27:12;;;;;;;;;;;11.80;61.70;;;;;;5049621;28;20250;-78
2021/04/25 09:29:50;;;;;;;;;;;12.00;62.20;;;;;;5015033;28;19923;-78
2021/04/25 09:32:28;;;;;;;;;;;12.00;65.30;;;;;;5049913;28;19969;-80
2021/04/25 09:35:29;;;;;;;;;;;12.10;63.10;;;;;;5051001;28;19978;-78
2021/04/25 09:37:54;;;;;;;;;;;12.40;65.70;;;;;;5015949;28;19924;-73
2021/04/25 09:40:21;;;;;;;;;;;12.40;61.60;;;;;;5048472;28;21715;-74
2021/04/25 09:43:03;;;;;;;;;;;12.40;62.40;;;;;;5030679;28;21508;-73
2021/04/25 09:45:30;;;;;;;;;;;12.50;61.10;;;;;;5013554;28;19920;-73
2021/04/25 09:47:56;;;;;;;;;;;12.50;60.60;;;;;;5015316;28;20383;-73
2021/04/25 09:50:22;;;;;;;;;;;12.50;61.50;;;;;;5015614;28;20037;-73
2021/04/25 09:52:50;;;;;;;;;;;12.70;60.60;;;;;;5047756;28;20314;-73
2021/04/25 09:55:15;;;;;;;;;;;13.00;66.30;;;;;;5046482;28;19917;-73
2021/04/25 09:57:44;;;;;;;;;;;12.90;61.10;;;;;;5046464;28;20732;-73
2021/04/25 10:00:10;;;;;;;;;;;12.70;57.10;;;;;;5030183;28;19916;-74
2021/04/25 10:02:59;;;;;;;;;;;12.40;57.60;;;;;;5047182;28;19994;-76
2021/04/25 10:05:28;;;;;;;;;;;12.30;56.30;;;;;;5029120;28;20286;-73
2021/04/25 10:07:53;;;;;;;;;;;12.50;59.80;;;;;;5048629;28;19929;-75
2021/04/25 10:10:19;;;;;;;;;;;12.60;62.10;;;;;;5029870;28;19981;-73
2021/04/25 10:12:45;;;;;;;;;;;12.80;57.30;;;;;;5030765;28;19920;-73
2021/04/25 10:15:11;;;;;;;;;;;12.30;56.30;;;;;;5048052;28;19932;-75
2021/04/25 10:17:47;;;;;;;;;;;12.60;61.60;;;;;;5047919;28;19916;-74
2021/04/25 10:20:14;;;;;;;;;;;12.60;61.30;;;;;;5029341;28;19932;-74
2021/04/25 10:22:43;;;;;;;;;;;12.30;59.10;;;;;;5029683;28;19924;-79
2021/04/25 10:25:09;;;;;;;;;;;12.30;57.80;;;;;;5046093;28;19967;-76
2021/04/25 10:27:35;;;;;;;;;;;12.50;56.20;;;;;;5029926;28;19924;-73
2021/04/25 10:30:02;;;;;;;;;;;12.60;58.40;;;;;;5047799;28;19982;-73
2021/04/25 10:32:28;;;;;;;;;;;12.60;57.30;;;;;;5028166;28;19921;-75
2021/04/25 10:35:14;;;;;;;;;;;12.90;61.10;;;;;;5045924;28;19917;-75
2021/04/25 10:37:41;;;;;;;;;;;12.70;55.00;;;;;;5028987;28;20054;-75
2021/04/25 10:40:23;;;;;;;;;;;12.60;55.40;;;;;;5047065;28;19931;-73
2021/04/25 10:42:56;;;;;;;;;;;12.60;55.30;;;;;;5046429;28;20015;-75
2021/04/25 10:45:28;;;;;;;;;;;13.10;57.40;;;;;;5029095;28;19921;-73
2021/04/25 10:48:12;;;;;;;;;;;13.20;58.90;;;;;;5031141;28;19927;-73
2021/04/25 10:50:38;;;;;;;;;;;12.90;54.00;;;;;;5047898;28;19921;-74
2021/04/25 10:53:20;;;;;;;;;;;13.20;52.50;;;;;;5047309;28;19920;-78
2021/04/25 10:55:46;;;;;;;;;;;13.40;54.90;;;;;;5047185;28;19920;-77
2021/04/25 10:58:16;;;;;;;;;;;12.90;52.20;;;;;;5046502;28;19921;-78
2021/04/25 11:00:42;;;;;;;;;;;12.80;54.90;;;;;;5048040;28;20011;-74
2021/04/25 11:03:22;;;;;;;;;;;12.70;56.20;;;;;;5047978;28;19956;-76
2021/04/25 11:05:48;;;;;;;;;;;12.90;54.20;;;;;;5048302;28;19917;-76
2021/04/25 11:08:13;;;;;;;;;;;12.80;54.60;;;;;;4989271;28;19930;-75
2021/04/25 11:10:58;;;;;;;;;;;12.90;55.50;;;;;;5011982;28;19925;-76
2021/04/25 11:13:35;;;;;;;;;;;12.70;52.20;;;;;;5007052;28;19914;-82
2021/04/25 11:16:04;;;;;;;;;;;13.00;53.10;;;;;;5007885;28;19928;-77
2021/04/25 11:18:44;;;;;;;;;;;12.80;53.00;;;;;;5022375;28;20365;-77
2021/04/25 11:21:25;;;;;;;;;;;13.50;60.50;;;;;;5007770;28;19921;-77
2021/04/25 11:23:55;;;;;;;;;;;13.30;53.40;;;;;;5007478;28;19917;-78
2021/04/25 11:26:41;;;;;;;;;;;13.80;54.70;;;;;;4989540;28;19928;-77
2021/04/25 11:29:11;;;;;;;;;;;13.70;52.60;;;;;;5006709;28;20071;-78
2021/04/25 11:31:43;;;;;;;;;;;14.20;55.30;;;;;;5005186;28;19965;-76
2021/04/25 11:34:33;;;;;;;;;;;14.60;55.40;;;;;;5004504;28;20052;-76
2021/04/25 11:37:21;;;;;;;;;;;14.50;51.00;;;;;;5006079;28;19948;-75
2021/04/25 11:40:03;;;;;;;;;;;14.60;50.00;;;;;;5006957;28;20055;-76
2021/04/25 11:42:36;;;;;;;;;;;14.30;49.90;;;;;;5005229;28;20734;-79
2021/04/25 11:45:12;;;;;;;;;;;14.20;47.00;;;;;;5006154;28;20401;-78
2021/04/25 11:47:45;;;;;;;;;;;14.00;50.20;;;;;;5022113;28;19946;-77
2021/04/25 11:50:11;;;;;;;;;;;13.90;49.40;;;;;;5022592;28;20131;-77
2021/04/25 11:52:36;;;;;;;;;;;14.40;50.90;;;;;;5005599;28;19925;-77
2021/04/25 11:55:06;;;;;;;;;;;14.00;49.60;;;;;;5021705;28;20004;-77
2021/04/25 11:57:35;;;;;;;;;;;14.30;51.20;;;;;;5006992;28;20635;-78
2021/04/25 12:00:06;;;;;;;;;;;14.60;52.80;;;;;;5021574;28;19917;-77
2021/04/25 12:02:34;;;;;;;;;;;15.30;53.70;;;;;;5005389;28;19952;-77
2021/04/25 12:05:09;;;;;;;;;;;15.40;46.70;;;;;;5020728;28;19921;-78
2021/04/25 12:07:40;;;;;;;;;;;15.90;47.90;;;;;;5035283;28;19925;-79
2021/04/25 12:10:10;;;;;;;;;;;15.70;47.60;;;;;;5045733;28;20012;-78
2021/04/25 12:12:36;;;;;;;;;;;15.90;48.20;;;;;;5045030;28;19952;-78
2021/04/25 12:15:06;;;;;;;;;;;16.00;49.20;;;;;;5026565;28;20042;-79
2021/04/25 12:17:32;;;;;;;;;;;16.30;47.20;;;;;;5028004;28;20024;-77
2021/04/25 12:20:01;;;;;;;;;;;16.50;47.40;;;;;;5028408;28;20199;-82
2021/04/25 12:22:27;;;;;;;;;;;16.30;45.90;;;;;;5012139;28;19921;-79
2021/04/25 12:25:02;;;;;;;;;;;16.10;43.90;;;;;;5026663;28;19928;-79
2021/04/25 12:27:30;;;;;;;;;;;17.00;52.80;;;;;;5025738;28;19966;-79
2021/04/25 12:29:55;;;;;;;;;;;16.50;46.20;;;;;;5045911;28;19920;-79
2021/04/25 12:32:21;;;;;;;;;;;16.50;45.70;;;;;;5012345;28;20498;-78
2021/04/25 12:34:59;;;;;;;;;;;16.10;42.40;;;;;;5028416;28;20011;-78
2021/04/25 12:37:38;;;;;;;;;;;15.80;46.80;;;;;;5045094;28;20008;-78
2021/04/25 12:40:04;;;;;;;;;;;16.10;45.20;;;;;;5044138;28;19931;-78
2021/04/25 12:42:30;;;;;;;;;;;16.10;44.60;;;;;;5028713;28;19920;-82
2021/04/25 12:44:55;;;;;;;;;;;15.60;43.40;;;;;;5044963;28;20259;-79
2021/04/25 12:47:28;;;;;;;;;;;16.00;43.50;;;;;;5044998;28;20308;-79
2021/04/25 12:49:53;;;;;;;;;;;15.80;42.30;;;;;;5045105;28;19982;-78
2021/04/25 12:52:19;;;;;;;;;;;15.90;44.10;;;;;;5045051;28;20358;-78
2021/04/25 12:54:45;;;;;;;;;;;16.10;44.50;;;;;;5027866;28;20863;-80
2021/04/25 12:57:10;;;;;;;;;;;16.50;44.00;;;;;;5011247;28;19952;-79
2021/04/25 12:59:38;;;;;;;;;;;16.40;43.50;;;;;;5045116;28;20023;-78
2021/04/25 13:02:07;;;;;;;;;;;16.10;43.30;;;;;;5029179;28;19928;-81
2021/04/25 13:04:46;;;;;;;;;;;16.70;46.20;;;;;;5046992;28;20054;-80
2021/04/25 13:07:17;;;;;;;;;;;17.20;45.80;;;;;;5026053;28;19956;-80
2021/04/25 13:09:45;;;;;;;;;;;17.30;43.10;;;;;;5045129;28;19960;-78
2021/04/25 13:12:17;;;;;;;;;;;17.40;41.90;;;;;;5026323;28;20526;-79
2021/04/25 13:14:59;;;;;;;;;;;16.70;40.90;;;;;;5044704;28;19931;-79
2021/04/25 13:17:27;;;;;;;;;;;16.90;44.60;;;;;;5045240;28;19928;-79
2021/04/25 13:19:55;;;;;;;;;;;16.90;45.40;;;;;;5045037;28;19921;-78
2021/04/25 13:22:21;;;;;;;;;;;16.50;42.20;;;;;;5045329;28;19928;-78
2021/04/25 13:24:47;;;;;;;;;;;16.50;43.90;;;;;;5028295;28;19916;-79
2021/04/25 13:27:14;;;;;;;;;;;16.40;45.50;;;;;;5027166;28;19920;-79
2021/04/25 13:29:42;;;;;;;;;;;16.50;46.60;;;;;;5044111;28;19932;-76
2021/04/25 13:32:13;;;;;;;;;;;16.50;44.30;;;;;;5010069;28;19966;-78
2021/04/25 13:34:38;;;;;;;;;;;16.60;43.40;;;;;;5014359;28;19990;-77
2021/04/25 13:37:05;;;;;;;;;;;16.50;44.10;;;;;;5048463;28;20300;-78
2021/04/25 13:39:30;;;;;;;;;;;16.10;40.20;;;;;;5049254;28;19920;-76
2021/04/25 13:41:56;;;;;;;;;;;15.90;39.00;;;;;;5047529;28;19925;-80
2021/04/25 13:44:22;;;;;;;;;;;15.90;40.70;;;;;;5048165;28;20020;-76
2021/04/25 13:46:47;;;;;;;;;;;15.70;44.00;;;;;;5048585;28;19917;-76
2021/04/25 13:49:13;;;;;;;;;;;15.60;41.50;;;;;;5049709;28;19920;-76
2021/04/25 13:51:42;;;;;;;;;;;15.60;41.60;;;;;;5048213;28;21542;-76
2021/04/25 13:54:07;;;;;;;;;;;15.70;47.50;;;;;;5017477;28;20360;-75
2021/04/25 13:56:35;;;;;;;;;;;16.00;44.80;;;;;;5030273;28;19920;-76
2021/04/25 13:59:01;;;;;;;;;;;16.00;42.80;;;;;;5030672;28;20433;-76
2021/04/25 14:01:28;;;;;;;;;;;15.40;38.30;;;;;;5030049;28;20031;-77
2021/04/25 14:03:55;;;;;;;;;;;15.10;39.70;;;;;;5028633;28;20436;-76
2021/04/25 14:06:24;;;;;;;;;;;14.80;39.10;;;;;;5011690;28;19928;-77
2021/04/25 14:08:51;;;;;;;;;;;14.10;40.10;;;;;;5017181;28;19921;-78
2021/04/25 14:11:17;;;;;;;;;;;14.60;45.40;;;;;;5048155;28;19934;-81
2021/04/25 14:13:45;;;;;;;;;;;14.20;43.20;;;;;;5016529;28;19944;-80
2021/04/25 14:16:11;;;;;;;;;;;14.40;45.50;;;;;;5047929;28;20007;-78
2021/04/25 14:18:36;;;;;;;;;;;14.70;44.20;;;;;;5050225;28;20005;-75
2021/04/25 14:21:05;;;;;;;;;;;14.80;45.20;;;;;;5047425;28;20249;-78
2021/04/25 14:23:30;;;;;;;;;;;14.50;43.80;;;;;;5029864;28;19927;-79
2021/04/25 14:25:56;;;;;;;;;;;14.80;44.40;;;;;;5049513;28;19917;-83